Time;durP1;ratioP1;P1;durP2;ratioP2;P2;SDS_P1;SDS_P2;PMS_P1;PMS_P2;Temp;Humidity;BMP_temperature;BMP_pressure;BME280_temperature;BME280_humidity;BME280_pressure;Samples;Min_cycle;Max_cycle;Signal;HPM_P1;HPM_P2
2022/11/29 00:02:15;;;;;;;;;;;5.60;99.90;;;;;;4928238;29;19973;-73
2022/11/29 00:04:40;;;;;;;;;;;5.60;99.90;;;;;;4948175;28;19930;-73
2022/11/29 00:07:06;;;;;;;;;;;5.60;99.90;;;;;;4935358;28;19957;-73
2022/11/29 00:09:32;;;;;;;;;;;5.50;99.90;;;;;;4939974;28;19922;-73
2022/11/29 00:12:12;;;;;;;;;;;5.50;99.90;;;;;;4948119;29;19926;-73
2022/11/29 00:14:38;;;;;;;;;;;5.50;99.90;;;;;;4926950;29;19927;-73
2022/11/29 00:17:04;;;;;;;;;;;5.50;99.90;;;;;;4938250;28;19926;-73
2022/11/29 00:19:31;;;;;;;;;;;5.50;99.90;;;;;;4950512;28;19944;-73
2022/11/29 00:21:57;;;;;;;;;;;5.50;99.90;;;;;;4939965;28;19921;-73
2022/11/29 00:24:23;;;;;;;;;;;5.40;99.90;;;;;;4946591;28;19926;-73
2022/11/29 00:26:48;;;;;;;;;;;5.40;99.90;;;;;;4954773;28;20079;-73
2022/11/29 00:29:14;;;;;;;;;;;5.40;99.90;;;;;;4944795;28;20402;-73
2022/11/29 00:31:40;;;;;;;;;;;5.40;99.90;;;;;;4960127;28;19926;-73
2022/11/29 00:34:06;;;;;;;;;;;5.40;99.90;;;;;;4957054;28;19930;-73
2022/11/29 00:36:35;;;;;;;;;;;5.30;99.90;;;;;;4937631;28;19933;-73
2022/11/29 00:39:01;;;;;;;;;;;5.30;99.90;;;;;;4931575;28;20354;-73
2022/11/29 00:41:26;;;;;;;;;;;5.30;99.90;;;;;;4947215;28;19997;-73
2022/11/29 00:43:52;;;;;;;;;;;5.30;99.90;;;;;;4931154;28;19926;-73
2022/11/29 00:46:18;;;;;;;;;;;5.30;99.90;;;;;;4944028;28;19926;-73
2022/11/29 00:48:44;;;;;;;;;;;5.30;99.90;;;;;;4933828;28;20025;-73
2022/11/29 00:51:09;;;;;;;;;;;5.30;99.90;;;;;;4938234;28;20539;-73
2022/11/29 00:53:35;;;;;;;;;;;5.30;99.90;;;;;;4945225;28;19982;-73
2022/11/29 00:56:01;;;;;;;;;;;5.30;99.90;;;;;;4953075;28;20271;-73
2022/11/29 00:58:27;;;;;;;;;;;5.20;99.90;;;;;;4930817;28;20158;-73
2022/11/29 01:00:53;;;;;;;;;;;5.20;99.90;;;;;;4947101;28;20442;-73
2022/11/29 01:03:18;;;;;;;;;;;5.20;99.90;;;;;;4952735;28;19973;-73
2022/11/29 01:05:44;;;;;;;;;;;5.10;99.90;;;;;;4946418;28;20081;-73
2022/11/29 01:08:11;;;;;;;;;;;5.10;99.90;;;;;;4946722;28;20142;-73
2022/11/29 01:10:36;;;;;;;;;;;5.10;99.90;;;;;;4951025;28;19927;-73
2022/11/29 01:13:02;;;;;;;;;;;5.10;99.90;;;;;;4956806;28;19929;-73
2022/11/29 01:15:28;;;;;;;;;;;5.00;99.90;;;;;;4934156;28;19969;-73
2022/11/29 01:17:54;;;;;;;;;;;5.00;99.90;;;;;;4951582;28;19930;-73
2022/11/29 01:20:20;;;;;;;;;;;5.00;99.90;;;;;;4952984;28;20442;-73
2022/11/29 01:22:45;;;;;;;;;;;5.00;99.90;;;;;;4957763;28;20397;-73
2022/11/29 01:25:11;;;;;;;;;;;5.00;99.90;;;;;;4954878;28;19923;-74
2022/11/29 01:27:37;;;;;;;;;;;5.00;99.90;;;;;;4949305;28;20422;-73
2022/11/29 01:30:03;;;;;;;;;;;5.00;99.90;;;;;;4937239;28;19978;-73
2022/11/29 01:32:29;;;;;;;;;;;5.00;99.90;;;;;;4957563;28;19937;-73
2022/11/29 01:34:55;;;;;;;;;;;5.00;99.90;;;;;;4959570;28;20382;-73
2022/11/29 01:37:20;;;;;;;;;;;4.90;99.90;;;;;;4941189;28;19992;-73
2022/11/29 01:39:46;;;;;;;;;;;4.90;99.90;;;;;;4938358;28;19930;-73
2022/11/29 01:42:12;;;;;;;;;;;4.90;99.90;;;;;;4945325;28;20311;-73
2022/11/29 01:44:38;;;;;;;;;;;4.90;99.90;;;;;;4947509;28;20033;-73
2022/11/29 01:47:03;;;;;;;;;;;4.90;99.90;;;;;;4952248;28;20483;-73
2022/11/29 01:49:32;;;;;;;;;;;4.90;99.90;;;;;;4938488;28;20385;-73
2022/11/29 01:52:05;;;;;;;;;;;4.80;99.90;;;;;;4939049;28;19922;-73
2022/11/29 01:54:33;;;;;;;;;;;4.80;99.90;;;;;;4964037;28;19923;-73
2022/11/29 01:57:01;;;;;;;;;;;4.80;99.90;;;;;;4954386;28;20009;-73
2022/11/29 01:59:28;;;;;;;;;;;4.80;99.90;;;;;;4948815;28;20065;-73
2022/11/29 02:01:58;;;;;;;;;;;4.80;99.90;;;;;;4963903;28;19945;-73
2022/11/29 02:04:24;;;;;;;;;;;4.80;99.90;;;;;;4942180;28;20048;-73
2022/11/29 02:06:49;;;;;;;;;;;4.70;99.90;;;;;;4950087;28;19934;-73
2022/11/29 02:09:20;;;;;;;;;;;4.70;99.90;;;;;;4943848;28;20484;-73
2022/11/29 02:12:05;;;;;;;;;;;4.70;99.90;;;;;;4950565;28;19926;-73
2022/11/29 02:14:48;;;;;;;;;;;4.70;99.90;;;;;;4939354;28;19926;-73
2022/11/29 02:17:14;;;;;;;;;;;4.60;99.90;;;;;;4936353;28;19981;-73
2022/11/29 02:20:04;;;;;;;;;;;4.70;99.90;;;;;;4941786;28;20381;-73
2022/11/29 02:22:33;;;;;;;;;;;4.70;99.90;;;;;;4937296;28;19923;-73
2022/11/29 02:24:59;;;;;;;;;;;4.60;99.90;;;;;;4937662;29;20310;-73
2022/11/29 02:27:24;;;;;;;;;;;4.60;99.90;;;;;;4946534;28;19926;-73
2022/11/29 02:29:53;;;;;;;;;;;4.60;99.90;;;;;;4930151;29;19926;-73
2022/11/29 02:32:37;;;;;;;;;;;4.60;99.90;;;;;;4938815;28;19922;-73
2022/11/29 02:35:09;;;;;;;;;;;4.60;99.90;;;;;;4929022;28;19922;-73
2022/11/29 02:37:56;;;;;;;;;;;4.60;99.90;;;;;;4945856;28;20426;-73
2022/11/29 02:40:42;;;;;;;;;;;4.50;99.90;;;;;;4945909;28;20013;-73
2022/11/29 02:43:26;;;;;;;;;;;4.50;99.90;;;;;;4967655;28;20468;-73
2022/11/29 02:46:00;;;;;;;;;;;4.50;99.90;;;;;;4943256;28;19972;-73
2022/11/29 02:48:26;;;;;;;;;;;4.50;99.90;;;;;;4959063;28;20018;-73
2022/11/29 02:50:54;;;;;;;;;;;4.50;99.90;;;;;;4933528;29;20021;-74
2022/11/29 02:53:26;;;;;;;;;;;4.50;99.90;;;;;;4942214;28;19922;-74
2022/11/29 02:56:06;;;;;;;;;;;4.50;99.90;;;;;;4932968;28;19927;-74
2022/11/29 02:58:58;;;;;;;;;;;4.50;99.90;;;;;;4940198;28;19931;-74
2022/11/29 03:01:28;;;;;;;;;;;4.40;99.90;;;;;;4925564;28;19991;-73
2022/11/29 03:04:02;;;;;;;;;;;4.40;99.90;;;;;;4962499;28;20398;-73
2022/11/29 03:06:46;;;;;;;;;;;4.40;99.90;;;;;;4943132;28;19922;-74
2022/11/29 03:09:21;;;;;;;;;;;4.40;99.90;;;;;;4967238;28;20394;-74
2022/11/29 03:12:01;;;;;;;;;;;4.30;99.90;;;;;;4932995;28;19926;-74
2022/11/29 03:14:59;;;;;;;;;;;4.30;99.90;;;;;;4964665;28;19926;-73
2022/11/29 03:17:30;;;;;;;;;;;4.30;99.90;;;;;;4910474;28;20386;-73
2022/11/29 03:19:59;;;;;;;;;;;4.20;99.90;;;;;;4940156;28;19930;-73
2022/11/29 03:22:43;;;;;;;;;;;4.20;99.90;;;;;;4951616;28;19974;-73
2022/11/29 03:25:18;;;;;;;;;;;4.20;99.90;;;;;;4968054;28;20378;-73
2022/11/29 03:27:58;;;;;;;;;;;4.20;99.90;;;;;;4948894;28;19931;-73
2022/11/29 03:30:23;;;;;;;;;;;4.20;99.90;;;;;;4936225;28;20339;-73
2022/11/29 03:33:01;;;;;;;;;;;4.10;99.90;;;;;;4933272;28;19930;-73
2022/11/29 03:35:33;;;;;;;;;;;4.10;99.90;;;;;;4965000;28;20021;-73
2022/11/29 03:38:05;;;;;;;;;;;4.10;99.90;;;;;;4942389;28;19923;-73
2022/11/29 03:40:41;;;;;;;;;;;4.10;99.90;;;;;;4955251;28;20030;-73
2022/11/29 03:43:09;;;;;;;;;;;4.10;99.90;;;;;;4956265;28;19986;-73
2022/11/29 03:45:38;;;;;;;;;;;4.10;99.90;;;;;;4945204;29;19974;-73
2022/11/29 03:48:06;;;;;;;;;;;4.10;99.90;;;;;;4958430;28;20009;-73
2022/11/29 03:50:38;;;;;;;;;;;4.10;99.90;;;;;;4967762;28;20298;-73
2022/11/29 03:53:11;;;;;;;;;;;4.00;99.90;;;;;;4945261;28;19932;-74
2022/11/29 03:55:52;;;;;;;;;;;4.00;99.90;;;;;;4943097;28;19922;-74
2022/11/29 03:58:18;;;;;;;;;;;4.00;99.90;;;;;;4953336;28;20454;-73
2022/11/29 04:00:46;;;;;;;;;;;4.10;99.90;;;;;;4948392;28;19926;-73
2022/11/29 04:03:30;;;;;;;;;;;4.00;99.90;;;;;;4943529;28;19922;-73
2022/11/29 04:06:14;;;;;;;;;;;4.10;99.90;;;;;;4953515;28;19994;-73
2022/11/29 04:08:48;;;;;;;;;;;4.10;99.90;;;;;;4932989;28;19926;-73
2022/11/29 04:11:32;;;;;;;;;;;4.10;99.90;;;;;;4953999;28;20442;-73
2022/11/29 04:14:17;;;;;;;;;;;4.10;99.90;;;;;;4965815;28;20274;-73
2022/11/29 04:16:55;;;;;;;;;;;4.20;99.90;;;;;;4974032;28;19922;-73
2022/11/29 04:19:21;;;;;;;;;;;4.20;99.90;;;;;;4956680;28;20057;-73
2022/11/29 04:21:46;;;;;;;;;;;4.20;99.90;;;;;;4963471;28;20389;-73
2022/11/29 04:24:31;;;;;;;;;;;4.20;99.90;;;;;;4971432;28;20378;-73
2022/11/29 04:26:56;;;;;;;;;;;4.20;99.90;;;;;;4947954;28;20302;-73
2022/11/29 04:29:28;;;;;;;;;;;4.20;99.90;;;;;;4963717;28;19937;-73
2022/11/29 04:32:04;;;;;;;;;;;4.10;99.90;;;;;;4977680;28;20382;-73
2022/11/29 04:34:42;;;;;;;;;;;4.10;99.90;;;;;;4944004;28;20360;-73
2022/11/29 04:37:22;;;;;;;;;;;4.00;99.90;;;;;;4965095;28;19930;-73
2022/11/29 04:39:56;;;;;;;;;;;4.00;99.90;;;;;;4965789;28;19922;-73
2022/11/29 04:42:22;;;;;;;;;;;4.00;99.90;;;;;;4956181;28;19930;-74
2022/11/29 04:44:53;;;;;;;;;;;3.90;99.90;;;;;;4949777;28;19923;-74
2022/11/29 04:47:38;;;;;;;;;;;3.90;99.90;;;;;;4935148;28;20677;-74
2022/11/29 04:50:06;;;;;;;;;;;3.90;99.90;;;;;;4949513;28;20363;-74
2022/11/29 04:52:48;;;;;;;;;;;3.90;99.90;;;;;;4931792;28;20065;-73
2022/11/29 04:55:17;;;;;;;;;;;3.90;99.90;;;;;;4950570;28;20446;-73
2022/11/29 04:57:46;;;;;;;;;;;3.90;99.90;;;;;;4966300;28;19968;-73
2022/11/29 05:00:18;;;;;;;;;;;3.90;99.90;;;;;;4946226;28;19935;-73
2022/11/29 05:02:49;;;;;;;;;;;3.80;99.90;;;;;;4948439;28;19929;-73
2022/11/29 05:05:23;;;;;;;;;;;3.80;99.90;;;;;;4944448;28;19965;-73
2022/11/29 05:07:51;;;;;;;;;;;3.80;99.90;;;;;;4958925;28;19964;-73
2022/11/29 05:10:36;;;;;;;;;;;3.80;99.90;;;;;;4959058;28;20054;-76
2022/11/29 05:13:20;;;;;;;;;;;3.80;99.90;;;;;;4970509;28;19949;-75
2022/11/29 05:15:45;;;;;;;;;;;3.80;99.90;;;;;;4950665;28;19926;-75
2022/11/29 05:18:29;;;;;;;;;;;3.70;99.90;;;;;;4935083;28;20183;-75
2022/11/29 05:20:55;;;;;;;;;;;3.70;99.90;;;;;;4938617;28;19934;-75
2022/11/29 05:23:47;;;;;;;;;;;3.70;99.90;;;;;;4964117;28;19945;-75
2022/11/29 05:26:26;;;;;;;;;;;3.70;99.90;;;;;;4911467;28;19973;-75
2022/11/29 05:29:01;;;;;;;;;;;3.60;99.90;;;;;;4948645;28;19923;-75
2022/11/29 05:31:54;;;;;;;;;;;3.60;99.90;;;;;;4950778;28;19973;-75
2022/11/29 05:34:41;;;;;;;;;;;3.60;99.90;;;;;;4960663;28;19922;-75
2022/11/29 05:37:29;;;;;;;;;;;3.60;99.90;;;;;;4954492;28;19988;-75
2022/11/29 05:40:10;;;;;;;;;;;3.60;99.90;;;;;;4963271;28;19934;-75
2022/11/29 05:42:48;;;;;;;;;;;3.60;99.90;;;;;;4963635;28;20112;-75
2022/11/29 05:45:35;;;;;;;;;;;3.60;99.90;;;;;;4958146;28;19929;-76
2022/11/29 05:48:20;;;;;;;;;;;3.60;99.90;;;;;;4939643;28;19926;-76
2022/11/29 05:51:09;;;;;;;;;;;3.60;99.90;;;;;;4934817;28;19934;-76
2022/11/29 05:53:34;;;;;;;;;;;3.60;99.90;;;;;;4959089;28;19932;-76
2022/11/29 05:56:08;;;;;;;;;;;3.60;99.90;;;;;;4942057;28;19922;-76
2022/11/29 05:58:45;;;;;;;;;;;3.60;99.90;;;;;;4960760;28;19930;-76
2022/11/29 06:01:16;;;;;;;;;;;3.60;99.90;;;;;;4982013;28;19926;-76
2022/11/29 06:04:00;;;;;;;;;;;3.60;99.90;;;;;;4952854;28;19925;-75
2022/11/29 06:06:33;;;;;;;;;;;3.60;99.90;;;;;;4931862;28;19937;-75
2022/11/29 06:09:07;;;;;;;;;;;3.60;99.90;;;;;;4960439;28;20301;-75
2022/11/29 06:11:36;;;;;;;;;;;3.60;99.90;;;;;;4942838;28;20290;-75
2022/11/29 06:14:07;;;;;;;;;;;3.70;99.90;;;;;;4949023;28;20018;-75
2022/11/29 06:16:39;;;;;;;;;;;3.70;99.90;;;;;;4946898;28;19922;-75
2022/11/29 06:19:19;;;;;;;;;;;3.70;99.90;;;;;;4938829;28;20057;-75
2022/11/29 06:22:05;;;;;;;;;;;3.70;99.90;;;;;;4954230;28;20430;-75
2022/11/29 06:24:38;;;;;;;;;;;3.70;99.90;;;;;;4938507;28;20406;-75
2022/11/29 06:27:20;;;;;;;;;;;3.70;99.90;;;;;;4966103;28;20226;-75
2022/11/29 06:30:05;;;;;;;;;;;3.70;99.90;;;;;;4957342;28;19932;-75
2022/11/29 06:32:43;;;;;;;;;;;3.60;99.90;;;;;;4940812;28;19922;-75
2022/11/29 06:35:47;;;;;;;;;;;3.60;99.90;;;;;;4958255;28;19922;-75
2022/11/29 06:38:21;;;;;;;;;;;3.50;99.90;;;;;;4931464;29;19933;-76
2022/11/29 06:40:47;;;;;;;;;;;3.50;99.90;;;;;;4924781;28;19938;-76
2022/11/29 06:43:13;;;;;;;;;;;3.50;99.90;;;;;;4932332;28;19977;-76
2022/11/29 06:45:42;;;;;;;;;;;3.50;99.90;;;;;;4950296;28;19922;-76
2022/11/29 06:48:09;;;;;;;;;;;3.50;99.90;;;;;;4943989;28;20306;-75
2022/11/29 06:50:46;;;;;;;;;;;3.50;99.90;;;;;;4934199;28;20358;-75
2022/11/29 06:53:15;;;;;;;;;;;3.50;99.90;;;;;;4950224;28;19929;-76
2022/11/29 06:55:44;;;;;;;;;;;3.50;99.90;;;;;;4961118;28;19933;-76
2022/11/29 06:58:28;;;;;;;;;;;3.50;99.90;;;;;;4958240;28;19929;-76
2022/11/29 07:01:09;;;;;;;;;;;3.50;99.90;;;;;;4941693;28;20174;-76
2022/11/29 07:03:44;;;;;;;;;;;3.50;99.90;;;;;;4951837;28;19926;-76
2022/11/29 07:06:21;;;;;;;;;;;3.60;99.90;;;;;;4947073;28;20040;-76
2022/11/29 07:08:48;;;;;;;;;;;3.50;99.90;;;;;;4962561;28;20285;-76
2022/11/29 07:11:15;;;;;;;;;;;3.50;99.90;;;;;;4967953;28;19922;-76
2022/11/29 07:13:40;;;;;;;;;;;3.50;99.90;;;;;;4954567;28;20353;-76
2022/11/29 07:16:25;;;;;;;;;;;3.50;99.90;;;;;;4972076;28;20075;-75
2022/11/29 07:19:00;;;;;;;;;;;3.50;99.90;;;;;;4951276;28;20028;-75
2022/11/29 07:21:34;;;;;;;;;;;3.50;99.90;;;;;;4970179;28;19934;-75
2022/11/29 07:24:06;;;;;;;;;;;3.50;99.90;;;;;;4940268;28;19930;-75
2022/11/29 07:26:37;;;;;;;;;;;3.50;99.90;;;;;;4960949;28;19932;-75
2022/11/29 07:29:19;;;;;;;;;;;3.50;99.90;;;;;;4972375;28;19928;-75
2022/11/29 07:31:57;;;;;;;;;;;3.40;99.90;;;;;;4937735;28;19968;-75
2022/11/29 07:34:43;;;;;;;;;;;3.40;99.90;;;;;;4970408;28;19977;-75
2022/11/29 07:37:09;;;;;;;;;;;3.30;99.90;;;;;;4973136;28;20381;-75
2022/11/29 07:39:38;;;;;;;;;;;3.30;99.90;;;;;;4953817;28;20017;-75
2022/11/29 07:42:09;;;;;;;;;;;3.20;99.90;;;;;;4946768;28;19930;-75
2022/11/29 07:44:41;;;;;;;;;;;3.20;99.90;;;;;;4966651;28;20559;-75
2022/11/29 07:47:07;;;;;;;;;;;3.20;99.90;;;;;;4967000;28;20362;-75
2022/11/29 07:49:32;;;;;;;;;;;3.20;99.90;;;;;;4953209;28;19938;-75
2022/11/29 07:51:58;;;;;;;;;;;3.30;99.90;;;;;;4955973;28;19926;-75
2022/11/29 07:54:24;;;;;;;;;;;3.30;99.90;;;;;;4969370;28;20424;-75
2022/11/29 07:56:50;;;;;;;;;;;3.30;99.90;;;;;;4958095;28;19933;-75
2022/11/29 07:59:15;;;;;;;;;;;3.40;99.90;;;;;;4947087;28;19980;-75
2022/11/29 08:01:41;;;;;;;;;;;3.40;99.90;;;;;;4957048;28;20008;-75
2022/11/29 08:04:07;;;;;;;;;;;3.40;99.90;;;;;;4951006;28;20326;-76
2022/11/29 08:06:33;;;;;;;;;;;3.40;99.90;;;;;;4936627;28;19926;-76
2022/11/29 08:08:59;;;;;;;;;;;3.40;99.90;;;;;;4933664;28;19923;-76
2022/11/29 08:11:24;;;;;;;;;;;3.40;99.90;;;;;;4934519;28;19930;-75
2022/11/29 08:13:54;;;;;;;;;;;3.40;99.90;;;;;;4966203;28;19922;-75
2022/11/29 08:16:20;;;;;;;;;;;3.50;99.90;;;;;;4948005;28;19927;-76
2022/11/29 08:18:45;;;;;;;;;;;3.50;99.90;;;;;;4925504;28;19956;-76
2022/11/29 08:21:16;;;;;;;;;;;3.50;99.90;;;;;;4953425;28;19927;-75
2022/11/29 08:23:46;;;;;;;;;;;3.60;99.90;;;;;;4956210;28;19933;-76
2022/11/29 08:26:12;;;;;;;;;;;3.60;99.90;;;;;;4944757;28;19926;-76
2022/11/29 08:28:37;;;;;;;;;;;3.60;99.90;;;;;;4953577;28;19976;-76
2022/11/29 08:31:04;;;;;;;;;;;3.70;99.90;;;;;;4934334;28;20016;-76
2022/11/29 08:33:30;;;;;;;;;;;3.70;99.90;;;;;;4954932;28;19980;-76
2022/11/29 08:36:02;;;;;;;;;;;3.70;99.90;;;;;;4939206;28;19926;-76
2022/11/29 08:38:27;;;;;;;;;;;3.80;99.90;;;;;;4951821;28;20032;-76
2022/11/29 08:40:53;;;;;;;;;;;3.80;99.90;;;;;;4947820;28;20668;-76
2022/11/29 08:43:19;;;;;;;;;;;3.80;99.90;;;;;;4949516;28;19926;-76
2022/11/29 08:45:44;;;;;;;;;;;3.90;99.90;;;;;;4949988;28;20741;-76
2022/11/29 08:48:12;;;;;;;;;;;3.90;99.90;;;;;;4933562;28;20013;-76
2022/11/29 08:50:37;;;;;;;;;;;4.00;99.90;;;;;;4936980;28;19926;-76
2022/11/29 08:55:47;;;;;;;;;;;4.40;99.90;;;;;;4955949;28;20017;-76
2022/11/29 08:58:14;;;;;;;;;;;4.60;99.90;;;;;;4956310;28;20021;-76
2022/11/29 09:00:41;;;;;;;;;;;4.80;99.90;;;;;;4954497;28;19926;-76
2022/11/29 09:05:51;;;;;;;;;;;5.10;99.90;;;;;;4958665;28;19921;-76
2022/11/29 09:08:17;;;;;;;;;;;5.20;99.90;;;;;;4959280;28;19929;-76
2022/11/29 09:10:43;;;;;;;;;;;5.40;99.90;;;;;;4958779;28;19970;-76
2022/11/29 09:13:09;;;;;;;;;;;5.50;99.90;;;;;;4933927;28;20005;-76
2022/11/29 09:15:38;;;;;;;;;;;5.60;99.90;;;;;;4957333;28;19922;-76
2022/11/29 09:18:04;;;;;;;;;;;5.70;99.90;;;;;;4965944;28;20375;-76
2022/11/29 09:20:31;;;;;;;;;;;5.70;99.90;;;;;;4958720;28;19927;-76
2022/11/29 09:22:57;;;;;;;;;;;5.80;99.90;;;;;;4962905;28;19961;-76
2022/11/29 09:25:23;;;;;;;;;;;5.90;99.90;;;;;;4955045;28;19936;-76
2022/11/29 09:27:48;;;;;;;;;;;6.00;99.90;;;;;;4951007;28;19923;-76
2022/11/29 09:30:14;;;;;;;;;;;6.10;99.90;;;;;;4972435;28;19930;-76
2022/11/29 09:32:40;;;;;;;;;;;6.10;99.90;;;;;;4966193;28;19926;-75
2022/11/29 09:35:05;;;;;;;;;;;6.20;99.90;;;;;;4953979;28;19957;-75
2022/11/29 09:37:32;;;;;;;;;;;6.30;99.90;;;;;;4942379;28;19930;-75
2022/11/29 09:39:57;;;;;;;;;;;6.40;99.90;;;;;;4957065;28;19923;-75
2022/11/29 09:42:42;;;;;;;;;;;6.50;99.90;;;;;;4961774;28;20692;-75
2022/11/29 09:45:17;;;;;;;;;;;6.60;99.90;;;;;;4954266;28;20604;-76
2022/11/29 09:47:45;;;;;;;;;;;6.60;99.90;;;;;;4945311;28;19928;-75
2022/11/29 09:50:24;;;;;;;;;;;6.70;99.90;;;;;;4937954;28;19923;-74
2022/11/29 09:53:23;;;;;;;;;;;6.80;99.90;;;;;;4968588;28;19926;-74
2022/11/29 09:55:55;;;;;;;;;;;6.90;99.90;;;;;;4934512;28;20449;-74
2022/11/29 09:58:25;;;;;;;;;;;6.90;99.90;;;;;;4962962;28;19933;-74
2022/11/29 10:01:01;;;;;;;;;;;7.00;99.90;;;;;;4965092;28;19926;-74
2022/11/29 10:03:32;;;;;;;;;;;7.10;99.90;;;;;;4947763;28;19934;-74
2022/11/29 10:06:06;;;;;;;;;;;7.20;99.90;;;;;;4952180;28;20424;-74
2022/11/29 10:08:52;;;;;;;;;;;7.30;99.90;;;;;;4952315;28;19945;-74
2022/11/29 10:11:22;;;;;;;;;;;7.40;99.90;;;;;;4955206;28;20353;-74
2022/11/29 10:13:50;;;;;;;;;;;7.50;99.90;;;;;;4959786;28;20358;-74
2022/11/29 10:16:27;;;;;;;;;;;7.60;99.90;;;;;;4960703;28;19926;-74
2022/11/29 10:19:00;;;;;;;;;;;7.60;99.90;;;;;;4959586;28;19922;-74
2022/11/29 10:21:33;;;;;;;;;;;7.70;99.90;;;;;;4970646;28;20036;-74
2022/11/29 10:24:01;;;;;;;;;;;7.70;99.90;;;;;;4953594;28;20347;-74
2022/11/29 10:26:27;;;;;;;;;;;7.80;99.90;;;;;;4945959;28;19926;-74
2022/11/29 10:28:56;;;;;;;;;;;7.80;99.90;;;;;;4939414;28;20038;-74
2022/11/29 10:31:33;;;;;;;;;;;7.90;99.90;;;;;;4942649;28;19930;-75
2022/11/29 10:34:00;;;;;;;;;;;7.90;99.90;;;;;;4965154;28;20010;-75
2022/11/29 10:36:26;;;;;;;;;;;7.90;99.90;;;;;;4941636;28;20378;-76
2022/11/29 10:38:54;;;;;;;;;;;8.00;99.90;;;;;;4950984;28;20184;-76
2022/11/29 10:41:21;;;;;;;;;;;8.00;99.90;;;;;;4942802;28;19931;-76
2022/11/29 10:43:47;;;;;;;;;;;8.10;99.90;;;;;;4941512;28;20560;-76
2022/11/29 10:46:16;;;;;;;;;;;8.10;99.90;;;;;;4970441;28;20005;-76
2022/11/29 10:48:41;;;;;;;;;;;8.20;99.90;;;;;;4951941;28;19926;-76
2022/11/29 10:51:14;;;;;;;;;;;8.30;99.90;;;;;;4946514;28;19937;-76
2022/11/29 10:53:40;;;;;;;;;;;8.40;99.90;;;;;;4962469;28;20327;-76
2022/11/29 10:56:21;;;;;;;;;;;8.50;99.90;;;;;;4940595;28;19927;-76
2022/11/29 10:58:57;;;;;;;;;;;8.50;99.90;;;;;;4946538;28;20572;-76
2022/11/29 11:01:24;;;;;;;;;;;8.60;99.90;;;;;;4960268;28;20307;-76
2022/11/29 11:03:50;;;;;;;;;;;8.60;99.90;;;;;;4943315;28;19932;-76
2022/11/29 11:06:15;;;;;;;;;;;8.60;99.90;;;;;;4943418;28;19926;-76
2022/11/29 11:08:43;;;;;;;;;;;8.70;99.90;;;;;;4954521;28;19970;-75
2022/11/29 11:11:10;;;;;;;;;;;8.70;99.90;;;;;;4970994;28;20334;-74
2022/11/29 11:13:36;;;;;;;;;;;8.80;99.90;;;;;;4944089;28;20409;-74
2022/11/29 11:16:18;;;;;;;;;;;8.80;99.90;;;;;;4931166;28;19922;-74
2022/11/29 11:18:44;;;;;;;;;;;8.80;99.90;;;;;;4965445;28;19922;-74
2022/11/29 11:21:11;;;;;;;;;;;8.90;99.90;;;;;;4944619;28;20242;-74
2022/11/29 11:23:39;;;;;;;;;;;8.90;99.90;;;;;;4945508;28;20389;-74
2022/11/29 11:26:09;;;;;;;;;;;9.00;99.90;;;;;;4948130;28;19930;-73
2022/11/29 11:28:49;;;;;;;;;;;9.00;99.90;;;;;;4961970;28;20271;-73
2022/11/29 11:31:15;;;;;;;;;;;9.10;99.90;;;;;;4940343;28;19922;-73
2022/11/29 11:33:44;;;;;;;;;;;9.20;99.90;;;;;;4954950;28;19926;-73
2022/11/29 11:36:12;;;;;;;;;;;9.30;99.90;;;;;;4948059;28;19933;-73
2022/11/29 11:38:58;;;;;;;;;;;9.40;99.90;;;;;;4958035;28;20430;-73
2022/11/29 11:44:34;;;;;;;;;;;9.50;99.90;;;;;;4953250;28;19930;-73
2022/11/29 11:47:00;;;;;;;;;;;9.50;99.90;;;;;;4971293;28;20375;-73
2022/11/29 11:49:44;;;;;;;;;;;9.50;99.90;;;;;;4973175;28;19929;-73
2022/11/29 11:52:18;;;;;;;;;;;9.50;99.90;;;;;;4937656;28;20052;-73
2022/11/29 11:54:44;;;;;;;;;;;9.50;99.90;;;;;;4958755;28;19932;-73
2022/11/29 11:57:20;;;;;;;;;;;9.40;99.90;;;;;;4939001;28;20171;-73
2022/11/29 11:59:46;;;;;;;;;;;9.40;99.90;;;;;;4981395;28;19922;-73
2022/11/29 12:02:34;;;;;;;;;;;9.30;99.90;;;;;;4944557;28;19926;-73
2022/11/29 12:05:01;;;;;;;;;;;9.30;99.90;;;;;;4951979;28;19937;-73
2022/11/29 12:07:31;;;;;;;;;;;9.20;99.90;;;;;;4937624;28;19969;-73
2022/11/29 12:10:02;;;;;;;;;;;9.20;99.90;;;;;;4967278;28;20278;-73
2022/11/29 12:12:30;;;;;;;;;;;9.20;99.90;;;;;;4937222;28;19984;-73
2022/11/29 12:15:15;;;;;;;;;;;9.20;99.90;;;;;;4956499;28;19923;-73
2022/11/29 12:17:47;;;;;;;;;;;9.20;99.90;;;;;;4970406;28;19933;-73
2022/11/29 12:20:28;;;;;;;;;;;9.20;99.90;;;;;;4958957;28;19936;-74
2022/11/29 12:23:12;;;;;;;;;;;9.20;99.90;;;;;;4936367;28;20431;-73
2022/11/29 12:25:41;;;;;;;;;;;9.30;99.90;;;;;;4940959;28;19926;-74
2022/11/29 12:28:11;;;;;;;;;;;9.30;99.90;;;;;;4964278;28;19930;-75
2022/11/29 12:30:38;;;;;;;;;;;9.40;99.90;;;;;;4967261;28;20016;-74
2022/11/29 12:33:22;;;;;;;;;;;9.50;99.90;;;;;;4959003;28;20366;-73
2022/11/29 12:35:53;;;;;;;;;;;9.50;99.90;;;;;;4961553;28;19933;-73
2022/11/29 12:38:26;;;;;;;;;;;9.60;99.90;;;;;;4949486;28;19933;-73
2022/11/29 12:41:10;;;;;;;;;;;9.70;99.90;;;;;;4963919;28;19934;-73
2022/11/29 12:43:48;;;;;;;;;;;9.70;99.90;;;;;;4938176;28;19930;-73
2022/11/29 12:46:24;;;;;;;;;;;9.80;99.90;;;;;;4951951;28;20009;-73
2022/11/29 12:49:06;;;;;;;;;;;9.80;99.90;;;;;;4967933;28;20310;-73
2022/11/29 12:51:38;;;;;;;;;;;9.90;99.90;;;;;;4943102;28;19922;-73
2022/11/29 12:54:26;;;;;;;;;;;9.90;99.90;;;;;;4956246;28;19926;-73
2022/11/29 12:56:54;;;;;;;;;;;9.90;99.90;;;;;;4956348;28;20365;-73
2022/11/29 12:59:35;;;;;;;;;;;9.90;99.90;;;;;;4969089;28;20529;-73
2022/11/29 13:02:10;;;;;;;;;;;9.90;99.90;;;;;;4974163;28;20309;-73
2022/11/29 13:04:50;;;;;;;;;;;9.90;99.90;;;;;;4963117;28;19965;-73
2022/11/29 13:07:30;;;;;;;;;;;9.90;99.90;;;;;;4946569;28;19927;-73
2022/11/29 13:09:59;;;;;;;;;;;9.90;99.90;;;;;;4951080;28;20237;-73
2022/11/29 13:12:36;;;;;;;;;;;9.80;99.90;;;;;;4947289;28;20334;-73
2022/11/29 13:15:10;;;;;;;;;;;9.80;99.90;;;;;;4958796;28;19926;-73
2022/11/29 13:17:47;;;;;;;;;;;9.80;99.90;;;;;;4953527;28;20367;-73
2022/11/29 13:20:33;;;;;;;;;;;9.80;99.90;;;;;;4979827;28;20597;-73
2022/11/29 13:23:11;;;;;;;;;;;9.80;99.90;;;;;;4954076;28;19965;-73
2022/11/29 13:25:38;;;;;;;;;;;9.80;99.90;;;;;;4961731;28;20339;-73
2022/11/29 13:28:06;;;;;;;;;;;9.70;99.90;;;;;;4954139;28;19922;-72
2022/11/29 13:30:34;;;;;;;;;;;9.70;99.90;;;;;;4959071;28;20354;-72
2022/11/29 13:33:15;;;;;;;;;;;9.70;99.90;;;;;;4950139;28;19922;-73
2022/11/29 13:35:47;;;;;;;;;;;9.70;99.90;;;;;;4958907;28;20322;-75
2022/11/29 13:38:26;;;;;;;;;;;9.70;99.90;;;;;;4934608;28;20403;-75
2022/11/29 13:40:52;;;;;;;;;;;9.70;99.90;;;;;;4955660;28;19927;-75
2022/11/29 13:43:32;;;;;;;;;;;9.60;99.90;;;;;;4956183;28;19923;-75
2022/11/29 13:46:16;;;;;;;;;;;9.60;99.90;;;;;;4946202;28;20401;-75
2022/11/29 13:48:47;;;;;;;;;;;9.60;99.90;;;;;;4964955;28;19976;-75
2022/11/29 13:51:19;;;;;;;;;;;9.50;99.90;;;;;;4936330;28;19933;-75
2022/11/29 13:53:44;;;;;;;;;;;9.50;99.90;;;;;;4966101;28;19922;-75
2022/11/29 13:56:22;;;;;;;;;;;9.50;99.90;;;;;;4941378;28;19926;-75
2022/11/29 13:58:51;;;;;;;;;;;9.50;99.90;;;;;;4961316;28;20246;-75
2022/11/29 14:01:17;;;;;;;;;;;9.50;99.90;;;;;;4956311;28;19949;-75
2022/11/29 14:03:43;;;;;;;;;;;9.50;99.90;;;;;;4947076;28;19990;-75
2022/11/29 14:06:20;;;;;;;;;;;9.40;99.90;;;;;;4941659;28;19922;-75
2022/11/29 14:08:46;;;;;;;;;;;9.40;99.90;;;;;;4958452;28;19933;-75
2022/11/29 14:11:11;;;;;;;;;;;9.40;99.90;;;;;;4963601;28;19923;-75
2022/11/29 14:13:40;;;;;;;;;;;9.30;99.90;;;;;;4948392;28;19930;-75
2022/11/29 14:16:11;;;;;;;;;;;9.30;99.90;;;;;;4936574;28;20426;-75
2022/11/29 14:18:39;;;;;;;;;;;9.20;99.90;;;;;;4948414;28;20313;-75
2022/11/29 14:21:05;;;;;;;;;;;9.10;99.90;;;;;;4956845;28;19934;-75
2022/11/29 14:23:39;;;;;;;;;;;9.10;99.90;;;;;;4945293;28;19929;-75
2022/11/29 14:26:04;;;;;;;;;;;9.10;99.90;;;;;;4939807;28;19926;-75
2022/11/29 14:28:34;;;;;;;;;;;9.00;99.90;;;;;;4945828;28;19997;-75
2022/11/29 14:31:00;;;;;;;;;;;9.00;99.90;;;;;;4958027;28;19980;-75
2022/11/29 14:33:51;;;;;;;;;;;9.00;99.90;;;;;;4958259;28;19923;-75
2022/11/29 14:36:24;;;;;;;;;;;9.00;99.90;;;;;;4933173;28;19923;-75
2022/11/29 14:39:15;;;;;;;;;;;8.90;99.90;;;;;;4974876;28;19969;-75
2022/11/29 14:42:00;;;;;;;;;;;8.90;99.90;;;;;;4965056;28;19993;-75
2022/11/29 14:44:30;;;;;;;;;;;8.80;99.90;;;;;;4973984;28;20043;-74
2022/11/29 14:46:59;;;;;;;;;;;8.80;99.90;;;;;;4974643;28;19931;-74
2022/11/29 14:49:27;;;;;;;;;;;8.80;99.90;;;;;;4960450;28;19930;-74
2022/11/29 14:52:11;;;;;;;;;;;8.70;99.90;;;;;;4966637;28;19922;-74
2022/11/29 14:54:51;;;;;;;;;;;8.70;99.90;;;;;;4966585;28;19926;-74
2022/11/29 14:57:35;;;;;;;;;;;8.70;99.90;;;;;;4973198;28;20394;-75
2022/11/29 15:00:01;;;;;;;;;;;8.60;99.90;;;;;;4950198;28;19961;-74
2022/11/29 15:02:38;;;;;;;;;;;8.60;99.90;;;;;;4949608;28;19925;-74
2022/11/29 15:05:12;;;;;;;;;;;8.60;99.90;;;;;;4943463;28;19933;-74
2022/11/29 15:07:42;;;;;;;;;;;8.50;99.90;;;;;;4939918;28;19926;-75
2022/11/29 15:10:12;;;;;;;;;;;8.50;99.90;;;;;;4958291;28;20731;-75